sensor_id;sensor_type;location;lat;lon;timestamp;P1;durP1;ratioP1;P2;durP2;ratioP2
6436;SDS011;3251;53.550;9.918;2022-08-19T00:00:21;9.60;;;7.93;;
6436;SDS011;3251;53.550;9.918;2022-08-19T00:02:47;14.20;;;8.33;;
6436;SDS011;3251;53.550;9.918;2022-08-19T00:05:13;8.80;;;8.00;;
6436;SDS011;3251;53.550;9.918;2022-08-19T00:07:41;13.40;;;9.27;;
6436;SDS011;3251;53.550;9.918;2022-08-19T00:10:08;11.83;;;9.67;;
6436;SDS011;3251;53.550;9.918;2022-08-19T00:12:35;17.93;;;11.57;;
6436;SDS011;3251;53.550;9.918;2022-08-19T00:15:03;10.17;;;8.90;;
6436;SDS011;3251;53.550;9.918;2022-08-19T00:17:29;12.17;;;10.20;;
6436;SDS011;3251;53.550;9.918;2022-08-19T00:19:55;18.73;;;9.80;;
6436;SDS011;3251;53.550;9.918;2022-08-19T00:22:21;11.70;;;10.50;;
6436;SDS011;3251;53.550;9.918;2022-08-19T00:24:47;11.90;;;9.90;;
6436;SDS011;3251;53.550;9.918;2022-08-19T00:27:14;13.87;;;10.33;;
6436;SDS011;3251;53.550;9.918;2022-08-19T00:29:40;10.80;;;9.70;;
6436;SDS011;3251;53.550;9.918;2022-08-19T00:32:06;20.07;;;11.80;;
6436;SDS011;3251;53.550;9.918;2022-08-19T00:34:32;18.30;;;14.07;;
6436;SDS011;3251;53.550;9.918;2022-08-19T00:36:58;22.27;;;14.57;;
6436;SDS011;3251;53.550;9.918;2022-08-19T00:39:25;16.53;;;12.07;;
6436;SDS011;3251;53.550;9.918;2022-08-19T00:41:51;14.67;;;13.13;;
6436;SDS011;3251;53.550;9.918;2022-08-19T00:44:21;20.47;;;14.67;;
6436;SDS011;3251;53.550;9.918;2022-08-19T00:46:49;15.97;;;12.70;;
6436;SDS011;3251;53.550;9.918;2022-08-19T00:51:42;14.33;;;12.80;;
6436;SDS011;3251;53.550;9.918;2022-08-19T00:54:09;19.60;;;13.67;;
6436;SDS011;3251;53.550;9.918;2022-08-19T00:56:35;23.77;;;15.90;;
6436;SDS011;3251;53.550;9.918;2022-08-19T00:59:02;19.43;;;15.30;;
6436;SDS011;3251;53.550;9.918;2022-08-19T01:01:41;22.83;;;18.87;;
6436;SDS011;3251;53.550;9.918;2022-08-19T01:04:07;25.30;;;18.83;;
6436;SDS011;3251;53.550;9.918;2022-08-19T01:06:35;32.93;;;18.43;;
6436;SDS011;3251;53.550;9.918;2022-08-19T01:09:03;28.73;;;19.70;;
6436;SDS011;3251;53.550;9.918;2022-08-19T01:11:30;27.70;;;20.63;;
6436;SDS011;3251;53.550;9.918;2022-08-19T01:13:57;27.57;;;19.20;;
6436;SDS011;3251;53.550;9.918;2022-08-19T01:16:24;33.53;;;21.63;;
6436;SDS011;3251;53.550;9.918;2022-08-19T01:18:51;27.97;;;19.20;;
6436;SDS011;3251;53.550;9.918;2022-08-19T01:21:22;30.73;;;20.10;;
6436;SDS011;3251;53.550;9.918;2022-08-19T01:23:49;26.50;;;18.00;;
6436;SDS011;3251;53.550;9.918;2022-08-19T01:26:17;29.20;;;21.67;;
6436;SDS011;3251;53.550;9.918;2022-08-19T01:28:45;29.63;;;18.70;;
6436;SDS011;3251;53.550;9.918;2022-08-19T01:31:14;29.00;;;20.80;;
6436;SDS011;3251;53.550;9.918;2022-08-19T01:33:41;39.70;;;20.90;;
6436;SDS011;3251;53.550;9.918;2022-08-19T01:36:08;27.17;;;19.70;;
6436;SDS011;3251;53.550;9.918;2022-08-19T01:38:36;23.50;;;19.47;;
6436;SDS011;3251;53.550;9.918;2022-08-19T01:41:03;35.13;;;21.73;;
6436;SDS011;3251;53.550;9.918;2022-08-19T01:43:29;24.63;;;19.73;;
6436;SDS011;3251;53.550;9.918;2022-08-19T01:45:55;32.37;;;19.87;;
6436;SDS011;3251;53.550;9.918;2022-08-19T01:48:21;24.70;;;18.90;;
6436;SDS011;3251;53.550;9.918;2022-08-19T01:50:48;28.17;;;19.67;;
6436;SDS011;3251;53.550;9.918;2022-08-19T01:53:16;36.03;;;20.40;;
6436;SDS011;3251;53.550;9.918;2022-08-19T01:55:42;42.70;;;21.73;;
6436;SDS011;3251;53.550;9.918;2022-08-19T01:58:16;32.93;;;19.70;;
6436;SDS011;3251;53.550;9.918;2022-08-19T02:00:44;41.03;;;22.57;;
6436;SDS011;3251;53.550;9.918;2022-08-19T02:03:11;33.13;;;20.23;;
6436;SDS011;3251;53.550;9.918;2022-08-19T02:05:37;37.00;;;19.30;;
6436;SDS011;3251;53.550;9.918;2022-08-19T02:08:03;32.83;;;21.30;;
6436;SDS011;3251;53.550;9.918;2022-08-19T02:10:29;46.17;;;22.93;;
6436;SDS011;3251;53.550;9.918;2022-08-19T02:12:57;38.73;;;22.87;;
6436;SDS011;3251;53.550;9.918;2022-08-19T02:15:23;37.37;;;21.90;;
6436;SDS011;3251;53.550;9.918;2022-08-19T02:17:50;37.13;;;22.50;;
6436;SDS011;3251;53.550;9.918;2022-08-19T02:20:17;36.13;;;20.30;;
6436;SDS011;3251;53.550;9.918;2022-08-19T02:22:43;42.53;;;23.13;;
6436;SDS011;3251;53.550;9.918;2022-08-19T02:25:11;36.07;;;21.63;;
6436;SDS011;3251;53.550;9.918;2022-08-19T02:27:37;33.23;;;21.80;;
6436;SDS011;3251;53.550;9.918;2022-08-19T02:30:09;36.23;;;20.87;;
6436;SDS011;3251;53.550;9.918;2022-08-19T02:32:36;38.80;;;21.83;;
6436;SDS011;3251;53.550;9.918;2022-08-19T02:35:02;38.70;;;25.40;;
6436;SDS011;3251;53.550;9.918;2022-08-19T02:37:28;40.20;;;23.10;;
6436;SDS011;3251;53.550;9.918;2022-08-19T02:40:18;41.03;;;21.17;;
6436;SDS011;3251;53.550;9.918;2022-08-19T02:42:44;43.67;;;24.43;;
6436;SDS011;3251;53.550;9.918;2022-08-19T02:45:11;42.90;;;22.37;;
6436;SDS011;3251;53.550;9.918;2022-08-19T02:47:38;47.50;;;23.70;;
6436;SDS011;3251;53.550;9.918;2022-08-19T02:50:04;49.97;;;25.40;;
6436;SDS011;3251;53.550;9.918;2022-08-19T02:52:31;59.13;;;26.60;;
6436;SDS011;3251;53.550;9.918;2022-08-19T02:54:58;52.03;;;25.97;;
6436;SDS011;3251;53.550;9.918;2022-08-19T02:57:25;52.73;;;28.40;;
6436;SDS011;3251;53.550;9.918;2022-08-19T02:59:51;61.73;;;26.93;;
6436;SDS011;3251;53.550;9.918;2022-08-19T03:02:18;54.27;;;26.60;;
6436;SDS011;3251;53.550;9.918;2022-08-19T03:04:44;53.50;;;27.27;;
6436;SDS011;3251;53.550;9.918;2022-08-19T03:07:14;66.57;;;31.47;;
6436;SDS011;3251;53.550;9.918;2022-08-19T03:09:41;68.27;;;30.13;;
6436;SDS011;3251;53.550;9.918;2022-08-19T03:12:07;58.40;;;31.30;;
6436;SDS011;3251;53.550;9.918;2022-08-19T03:14:33;60.03;;;30.40;;
6436;SDS011;3251;53.550;9.918;2022-08-19T03:17:00;58.07;;;30.27;;
6436;SDS011;3251;53.550;9.918;2022-08-19T03:19:28;54.67;;;28.97;;
6436;SDS011;3251;53.550;9.918;2022-08-19T03:21:54;58.00;;;28.80;;
6436;SDS011;3251;53.550;9.918;2022-08-19T03:24:20;65.77;;;30.37;;
6436;SDS011;3251;53.550;9.918;2022-08-19T03:26:48;70.50;;;29.80;;
6436;SDS011;3251;53.550;9.918;2022-08-19T03:29:15;57.90;;;29.63;;
6436;SDS011;3251;53.550;9.918;2022-08-19T03:31:42;67.33;;;31.73;;
6436;SDS011;3251;53.550;9.918;2022-08-19T03:34:09;59.40;;;29.63;;
6436;SDS011;3251;53.550;9.918;2022-08-19T03:36:36;51.53;;;28.07;;
6436;SDS011;3251;53.550;9.918;2022-08-19T03:39:03;61.53;;;29.40;;
6436;SDS011;3251;53.550;9.918;2022-08-19T03:41:31;63.33;;;30.00;;
6436;SDS011;3251;53.550;9.918;2022-08-19T03:43:58;47.23;;;26.03;;
6436;SDS011;3251;53.550;9.918;2022-08-19T03:46:28;49.57;;;28.10;;
6436;SDS011;3251;53.550;9.918;2022-08-19T03:48:55;60.53;;;29.03;;
6436;SDS011;3251;53.550;9.918;2022-08-19T03:51:23;62.43;;;27.90;;
6436;SDS011;3251;53.550;9.918;2022-08-19T03:53:50;57.57;;;27.20;;
6436;SDS011;3251;53.550;9.918;2022-08-19T03:56:16;59.50;;;29.03;;
6436;SDS011;3251;53.550;9.918;2022-08-19T03:58:42;61.23;;;29.17;;
6436;SDS011;3251;53.550;9.918;2022-08-19T04:01:09;46.17;;;25.13;;
6436;SDS011;3251;53.550;9.918;2022-08-19T04:03:36;54.43;;;27.63;;
6436;SDS011;3251;53.550;9.918;2022-08-19T04:06:36;52.83;;;30.90;;
6436;SDS011;3251;53.550;9.918;2022-08-19T04:08:56;53.23;;;30.70;;
6436;SDS011;3251;53.550;9.918;2022-08-19T04:11:26;53.33;;;29.03;;
6436;SDS011;3251;53.550;9.918;2022-08-19T04:13:53;66.97;;;30.17;;
6436;SDS011;3251;53.550;9.918;2022-08-19T04:16:20;60.90;;;29.90;;
6436;SDS011;3251;53.550;9.918;2022-08-19T04:18:47;49.53;;;27.60;;
6436;SDS011;3251;53.550;9.918;2022-08-19T04:21:20;51.23;;;26.03;;
6436;SDS011;3251;53.550;9.918;2022-08-19T04:23:47;48.83;;;27.63;;
6436;SDS011;3251;53.550;9.918;2022-08-19T04:26:18;42.40;;;25.53;;
6436;SDS011;3251;53.550;9.918;2022-08-19T04:28:44;43.10;;;27.23;;
6436;SDS011;3251;53.550;9.918;2022-08-19T04:31:15;54.60;;;28.60;;
6436;SDS011;3251;53.550;9.918;2022-08-19T04:33:42;42.97;;;26.50;;
6436;SDS011;3251;53.550;9.918;2022-08-19T04:36:14;36.17;;;25.00;;
6436;SDS011;3251;53.550;9.918;2022-08-19T04:38:41;42.67;;;24.80;;
6436;SDS011;3251;53.550;9.918;2022-08-19T04:41:07;54.37;;;26.60;;
6436;SDS011;3251;53.550;9.918;2022-08-19T04:43:52;39.63;;;25.43;;
6436;SDS011;3251;53.550;9.918;2022-08-19T04:46:18;48.90;;;26.77;;
6436;SDS011;3251;53.550;9.918;2022-08-19T04:48:45;52.83;;;26.20;;
6436;SDS011;3251;53.550;9.918;2022-08-19T04:51:11;38.53;;;25.40;;
6436;SDS011;3251;53.550;9.918;2022-08-19T04:53:38;40.57;;;23.60;;
6436;SDS011;3251;53.550;9.918;2022-08-19T04:56:09;49.33;;;26.13;;
6436;SDS011;3251;53.550;9.918;2022-08-19T04:58:40;61.43;;;27.70;;
6436;SDS011;3251;53.550;9.918;2022-08-19T05:01:19;51.90;;;25.53;;
6436;SDS011;3251;53.550;9.918;2022-08-19T05:03:46;51.87;;;29.20;;
6436;SDS011;3251;53.550;9.918;2022-08-19T05:06:13;45.43;;;24.40;;
6436;SDS011;3251;53.550;9.918;2022-08-19T05:08:40;49.60;;;29.20;;
6436;SDS011;3251;53.550;9.918;2022-08-19T05:11:15;36.90;;;23.10;;
6436;SDS011;3251;53.550;9.918;2022-08-19T05:13:42;54.53;;;25.90;;
6436;SDS011;3251;53.550;9.918;2022-08-19T05:16:08;69.07;;;25.90;;
6436;SDS011;3251;53.550;9.918;2022-08-19T05:18:35;46.57;;;22.73;;
6436;SDS011;3251;53.550;9.918;2022-08-19T05:21:20;46.67;;;24.10;;
6436;SDS011;3251;53.550;9.918;2022-08-19T05:24:05;41.23;;;23.10;;
6436;SDS011;3251;53.550;9.918;2022-08-19T05:26:38;45.70;;;23.90;;
6436;SDS011;3251;53.550;9.918;2022-08-19T05:29:05;45.00;;;21.40;;
6436;SDS011;3251;53.550;9.918;2022-08-19T05:31:32;35.33;;;22.00;;
6436;SDS011;3251;53.550;9.918;2022-08-19T05:33:59;34.67;;;20.67;;
6436;SDS011;3251;53.550;9.918;2022-08-19T05:36:26;37.90;;;19.20;;
6436;SDS011;3251;53.550;9.918;2022-08-19T05:38:52;32.20;;;19.10;;
6436;SDS011;3251;53.550;9.918;2022-08-19T05:41:19;47.60;;;22.87;;
6436;SDS011;3251;53.550;9.918;2022-08-19T05:43:46;37.10;;;22.33;;
6436;SDS011;3251;53.550;9.918;2022-08-19T05:46:16;38.43;;;22.83;;
6436;SDS011;3251;53.550;9.918;2022-08-19T05:48:43;35.63;;;16.80;;
6436;SDS011;3251;53.550;9.918;2022-08-19T05:51:09;33.30;;;18.40;;
6436;SDS011;3251;53.550;9.918;2022-08-19T05:53:36;29.27;;;18.17;;
6436;SDS011;3251;53.550;9.918;2022-08-19T05:56:06;25.03;;;15.77;;
6436;SDS011;3251;53.550;9.918;2022-08-19T05:58:32;32.47;;;15.70;;
6436;SDS011;3251;53.550;9.918;2022-08-19T06:00:59;36.83;;;17.80;;
6436;SDS011;3251;53.550;9.918;2022-08-19T06:03:30;41.60;;;20.40;;
6436;SDS011;3251;53.550;9.918;2022-08-19T06:05:56;28.47;;;17.10;;
6436;SDS011;3251;53.550;9.918;2022-08-19T06:08:24;37.73;;;19.73;;
6436;SDS011;3251;53.550;9.918;2022-08-19T06:10:50;22.37;;;15.40;;
6436;SDS011;3251;53.550;9.918;2022-08-19T06:13:16;25.43;;;16.97;;
6436;SDS011;3251;53.550;9.918;2022-08-19T06:15:44;25.37;;;15.67;;
6436;SDS011;3251;53.550;9.918;2022-08-19T06:18:11;33.77;;;17.73;;
6436;SDS011;3251;53.550;9.918;2022-08-19T06:20:38;29.83;;;15.13;;
6436;SDS011;3251;53.550;9.918;2022-08-19T06:23:04;30.70;;;16.27;;
6436;SDS011;3251;53.550;9.918;2022-08-19T06:25:30;37.80;;;18.40;;
6436;SDS011;3251;53.550;9.918;2022-08-19T06:27:56;41.47;;;19.37;;
6436;SDS011;3251;53.550;9.918;2022-08-19T06:30:23;50.93;;;28.57;;
6436;SDS011;3251;53.550;9.918;2022-08-19T06:32:49;40.70;;;20.93;;
6436;SDS011;3251;53.550;9.918;2022-08-19T06:35:15;22.83;;;15.73;;
6436;SDS011;3251;53.550;9.918;2022-08-19T06:37:42;19.77;;;15.13;;
6436;SDS011;3251;53.550;9.918;2022-08-19T06:40:09;24.77;;;14.77;;
6436;SDS011;3251;53.550;9.918;2022-08-19T06:42:37;29.97;;;13.77;;
6436;SDS011;3251;53.550;9.918;2022-08-19T06:45:04;23.60;;;14.63;;
6436;SDS011;3251;53.550;9.918;2022-08-19T06:47:30;29.87;;;16.27;;
6436;SDS011;3251;53.550;9.918;2022-08-19T06:50:00;28.47;;;13.73;;
6436;SDS011;3251;53.550;9.918;2022-08-19T06:52:30;21.63;;;11.50;;
6436;SDS011;3251;53.550;9.918;2022-08-19T06:54:57;24.57;;;11.00;;
6436;SDS011;3251;53.550;9.918;2022-08-19T06:57:24;21.60;;;12.20;;
6436;SDS011;3251;53.550;9.918;2022-08-19T06:59:50;21.23;;;10.80;;
6436;SDS011;3251;53.550;9.918;2022-08-19T07:02:16;16.77;;;9.50;;
6436;SDS011;3251;53.550;9.918;2022-08-19T07:04:42;26.93;;;9.70;;
6436;SDS011;3251;53.550;9.918;2022-08-19T07:07:10;25.50;;;10.80;;
6436;SDS011;3251;53.550;9.918;2022-08-19T07:09:38;17.57;;;9.10;;
6436;SDS011;3251;53.550;9.918;2022-08-19T07:12:05;30.20;;;12.43;;
6436;SDS011;3251;53.550;9.918;2022-08-19T07:14:32;25.23;;;9.80;;
6436;SDS011;3251;53.550;9.918;2022-08-19T07:17:01;16.50;;;9.70;;
6436;SDS011;3251;53.550;9.918;2022-08-19T07:19:28;23.87;;;15.90;;
6436;SDS011;3251;53.550;9.918;2022-08-19T07:21:54;16.67;;;11.97;;
6436;SDS011;3251;53.550;9.918;2022-08-19T07:24:22;23.33;;;11.63;;
6436;SDS011;3251;53.550;9.918;2022-08-19T07:26:49;14.57;;;11.70;;
6436;SDS011;3251;53.550;9.918;2022-08-19T07:29:16;17.67;;;11.00;;
6436;SDS011;3251;53.550;9.918;2022-08-19T07:31:42;22.27;;;9.97;;
6436;SDS011;3251;53.550;9.918;2022-08-19T07:34:08;15.03;;;11.07;;
6436;SDS011;3251;53.550;9.918;2022-08-19T07:36:37;16.17;;;8.73;;
6436;SDS011;3251;53.550;9.918;2022-08-19T07:39:14;16.00;;;9.93;;
6436;SDS011;3251;53.550;9.918;2022-08-19T07:41:41;12.53;;;8.60;;
6436;SDS011;3251;53.550;9.918;2022-08-19T07:44:08;8.77;;;7.17;;
6436;SDS011;3251;53.550;9.918;2022-08-19T07:46:35;11.23;;;8.10;;
6436;SDS011;3251;53.550;9.918;2022-08-19T07:49:02;17.60;;;8.13;;
6436;SDS011;3251;53.550;9.918;2022-08-19T07:51:29;10.23;;;8.70;;
6436;SDS011;3251;53.550;9.918;2022-08-19T07:53:55;24.90;;;14.27;;
6436;SDS011;3251;53.550;9.918;2022-08-19T07:56:21;22.10;;;13.67;;
6436;SDS011;3251;53.550;9.918;2022-08-19T07:58:50;21.93;;;10.63;;
6436;SDS011;3251;53.550;9.918;2022-08-19T08:01:23;10.93;;;8.83;;
6436;SDS011;3251;53.550;9.918;2022-08-19T08:03:50;12.00;;;7.83;;
6436;SDS011;3251;53.550;9.918;2022-08-19T08:06:35;12.30;;;7.17;;
6436;SDS011;3251;53.550;9.918;2022-08-19T08:09:29;14.57;;;7.67;;
6436;SDS011;3251;53.550;9.918;2022-08-19T08:14:24;10.77;;;7.20;;
6436;SDS011;3251;53.550;9.918;2022-08-19T08:16:51;8.70;;;7.80;;
6436;SDS011;3251;53.550;9.918;2022-08-19T08:19:21;33.20;;;20.43;;
6436;SDS011;3251;53.550;9.918;2022-08-19T08:21:55;103.87;;;64.23;;
6436;SDS011;3251;53.550;9.918;2022-08-19T08:24:30;29.03;;;19.90;;
6436;SDS011;3251;53.550;9.918;2022-08-19T08:26:57;19.03;;;12.87;;
6436;SDS011;3251;53.550;9.918;2022-08-19T08:29:24;56.13;;;34.53;;
6436;SDS011;3251;53.550;9.918;2022-08-19T08:31:50;60.70;;;32.23;;
6436;SDS011;3251;53.550;9.918;2022-08-19T08:34:17;35.57;;;19.40;;
6436;SDS011;3251;53.550;9.918;2022-08-19T08:36:44;31.00;;;17.37;;
6436;SDS011;3251;53.550;9.918;2022-08-19T08:39:18;28.57;;;15.57;;
6436;SDS011;3251;53.550;9.918;2022-08-19T08:47:03;23.30;;;14.93;;
6436;SDS011;3251;53.550;9.918;2022-08-19T08:52:06;27.93;;;15.77;;
6436;SDS011;3251;53.550;9.918;2022-08-19T08:54:37;24.40;;;13.43;;
6436;SDS011;3251;53.550;9.918;2022-08-19T08:57:07;18.83;;;13.30;;
6436;SDS011;3251;53.550;9.918;2022-08-19T08:59:37;30.70;;;13.80;;
6436;SDS011;3251;53.550;9.918;2022-08-19T09:02:05;22.90;;;13.57;;
6436;SDS011;3251;53.550;9.918;2022-08-19T09:04:31;37.13;;;15.67;;
6436;SDS011;3251;53.550;9.918;2022-08-19T09:07:20;21.90;;;15.33;;
6436;SDS011;3251;53.550;9.918;2022-08-19T09:09:49;25.37;;;16.90;;
6436;SDS011;3251;53.550;9.918;2022-08-19T09:12:19;58.40;;;36.33;;
6436;SDS011;3251;53.550;9.918;2022-08-19T09:17:14;51.03;;;34.00;;
6436;SDS011;3251;53.550;9.918;2022-08-19T09:19:48;26.77;;;16.90;;
6436;SDS011;3251;53.550;9.918;2022-08-19T09:22:15;30.60;;;15.70;;
6436;SDS011;3251;53.550;9.918;2022-08-19T09:24:41;24.53;;;13.57;;
6436;SDS011;3251;53.550;9.918;2022-08-19T09:27:07;23.10;;;14.27;;
6436;SDS011;3251;53.550;9.918;2022-08-19T09:29:33;34.93;;;16.53;;
6436;SDS011;3251;53.550;9.918;2022-08-19T09:32:00;32.47;;;18.03;;
6436;SDS011;3251;53.550;9.918;2022-08-19T09:34:26;29.73;;;18.60;;
6436;SDS011;3251;53.550;9.918;2022-08-19T09:36:54;27.23;;;18.53;;
6436;SDS011;3251;53.550;9.918;2022-08-19T09:39:23;31.50;;;16.13;;
6436;SDS011;3251;53.550;9.918;2022-08-19T09:41:52;25.13;;;16.13;;
6436;SDS011;3251;53.550;9.918;2022-08-19T09:44:18;22.50;;;14.50;;
6436;SDS011;3251;53.550;9.918;2022-08-19T09:46:48;21.50;;;13.90;;
6436;SDS011;3251;53.550;9.918;2022-08-19T09:49:16;22.50;;;12.97;;
6436;SDS011;3251;53.550;9.918;2022-08-19T09:51:43;20.90;;;12.23;;
6436;SDS011;3251;53.550;9.918;2022-08-19T09:54:09;32.97;;;20.67;;
6436;SDS011;3251;53.550;9.918;2022-08-19T09:56:35;43.40;;;24.03;;
6436;SDS011;3251;53.550;9.918;2022-08-19T09:59:02;24.50;;;14.60;;
6436;SDS011;3251;53.550;9.918;2022-08-19T10:01:30;23.50;;;13.57;;
6436;SDS011;3251;53.550;9.918;2022-08-19T10:03:57;28.90;;;13.47;;
6436;SDS011;3251;53.550;9.918;2022-08-19T10:06:24;23.13;;;14.03;;
6436;SDS011;3251;53.550;9.918;2022-08-19T10:08:51;15.53;;;13.03;;
6436;SDS011;3251;53.550;9.918;2022-08-19T10:11:18;23.60;;;16.60;;
6436;SDS011;3251;53.550;9.918;2022-08-19T10:13:44;19.07;;;14.13;;
6436;SDS011;3251;53.550;9.918;2022-08-19T10:16:13;20.73;;;14.60;;
6436;SDS011;3251;53.550;9.918;2022-08-19T10:18:39;20.00;;;16.77;;
6436;SDS011;3251;53.550;9.918;2022-08-19T10:21:13;21.73;;;16.20;;
6436;SDS011;3251;53.550;9.918;2022-08-19T10:23:41;24.00;;;13.27;;
6436;SDS011;3251;53.550;9.918;2022-08-19T10:26:11;33.60;;;17.00;;
6436;SDS011;3251;53.550;9.918;2022-08-19T10:28:37;20.27;;;15.70;;
6436;SDS011;3251;53.550;9.918;2022-08-19T10:31:07;24.17;;;15.40;;
6436;SDS011;3251;53.550;9.918;2022-08-19T10:33:34;26.13;;;17.07;;
6436;SDS011;3251;53.550;9.918;2022-08-19T10:36:05;36.17;;;16.87;;
6436;SDS011;3251;53.550;9.918;2022-08-19T10:38:31;73.40;;;44.23;;
6436;SDS011;3251;53.550;9.918;2022-08-19T10:41:06;53.10;;;26.40;;
6436;SDS011;3251;53.550;9.918;2022-08-19T10:43:32;26.90;;;18.63;;
6436;SDS011;3251;53.550;9.918;2022-08-19T10:46:02;41.83;;;17.70;;
6436;SDS011;3251;53.550;9.918;2022-08-19T10:48:28;35.87;;;17.17;;
6436;SDS011;3251;53.550;9.918;2022-08-19T10:50:56;24.43;;;15.43;;
6436;SDS011;3251;53.550;9.918;2022-08-19T10:53:41;23.87;;;17.50;;
6436;SDS011;3251;53.550;9.918;2022-08-19T10:56:07;33.60;;;18.93;;
6436;SDS011;3251;53.550;9.918;2022-08-19T10:58:52;23.03;;;15.00;;
6436;SDS011;3251;53.550;9.918;2022-08-19T11:01:18;30.20;;;17.47;;
6436;SDS011;3251;53.550;9.918;2022-08-19T11:03:44;26.27;;;18.73;;
6436;SDS011;3251;53.550;9.918;2022-08-19T11:06:11;25.23;;;17.40;;
6436;SDS011;3251;53.550;9.918;2022-08-19T11:08:37;30.43;;;16.00;;
6436;SDS011;3251;53.550;9.918;2022-08-19T11:11:04;29.10;;;20.80;;
6436;SDS011;3251;53.550;9.918;2022-08-19T11:13:31;44.30;;;21.77;;
6436;SDS011;3251;53.550;9.918;2022-08-19T11:16:03;40.63;;;20.83;;
6436;SDS011;3251;53.550;9.918;2022-08-19T11:18:38;70.27;;;43.20;;
6436;SDS011;3251;53.550;9.918;2022-08-19T11:21:06;42.83;;;25.00;;
6436;SDS011;3251;53.550;9.918;2022-08-19T11:23:32;32.63;;;20.00;;
6436;SDS011;3251;53.550;9.918;2022-08-19T11:26:01;24.80;;;16.07;;
6436;SDS011;3251;53.550;9.918;2022-08-19T11:28:27;32.67;;;17.80;;
6436;SDS011;3251;53.550;9.918;2022-08-19T11:30:53;35.60;;;20.13;;
6436;SDS011;3251;53.550;9.918;2022-08-19T11:33:20;29.83;;;18.00;;
6436;SDS011;3251;53.550;9.918;2022-08-19T11:35:46;32.53;;;18.53;;
6436;SDS011;3251;53.550;9.918;2022-08-19T11:38:12;22.30;;;15.97;;
6436;SDS011;3251;53.550;9.918;2022-08-19T11:40:39;28.57;;;18.27;;
6436;SDS011;3251;53.550;9.918;2022-08-19T11:43:07;36.73;;;18.70;;
6436;SDS011;3251;53.550;9.918;2022-08-19T11:45:34;22.10;;;15.07;;
6436;SDS011;3251;53.550;9.918;2022-08-19T11:48:00;19.77;;;16.10;;
6436;SDS011;3251;53.550;9.918;2022-08-19T11:50:27;19.73;;;14.93;;
6436;SDS011;3251;53.550;9.918;2022-08-19T11:52:54;21.87;;;15.53;;
6436;SDS011;3251;53.550;9.918;2022-08-19T11:55:21;19.50;;;14.73;;
6436;SDS011;3251;53.550;9.918;2022-08-19T11:57:47;22.03;;;14.80;;
6436;SDS011;3251;53.550;9.918;2022-08-19T12:00:13;24.40;;;16.90;;
6436;SDS011;3251;53.550;9.918;2022-08-19T12:02:39;28.43;;;15.90;;
6436;SDS011;3251;53.550;9.918;2022-08-19T12:05:06;21.70;;;17.47;;
6436;SDS011;3251;53.550;9.918;2022-08-19T12:07:33;25.43;;;20.07;;
6436;SDS011;3251;53.550;9.918;2022-08-19T12:09:59;20.07;;;17.30;;
6436;SDS011;3251;53.550;9.918;2022-08-19T12:12:28;22.73;;;16.90;;
6436;SDS011;3251;53.550;9.918;2022-08-19T12:14:54;17.97;;;14.07;;
6436;SDS011;3251;53.550;9.918;2022-08-19T12:17:23;18.93;;;15.00;;
6436;SDS011;3251;53.550;9.918;2022-08-19T12:19:54;22.70;;;15.07;;
6436;SDS011;3251;53.550;9.918;2022-08-19T12:22:20;17.90;;;15.87;;
6436;SDS011;3251;53.550;9.918;2022-08-19T12:24:46;21.37;;;17.80;;
6436;SDS011;3251;53.550;9.918;2022-08-19T12:27:15;20.07;;;16.17;;
6436;SDS011;3251;53.550;9.918;2022-08-19T12:29:41;19.53;;;15.07;;
6436;SDS011;3251;53.550;9.918;2022-08-19T12:32:07;27.83;;;17.57;;
6436;SDS011;3251;53.550;9.918;2022-08-19T12:34:34;17.43;;;14.20;;
6436;SDS011;3251;53.550;9.918;2022-08-19T12:37:02;14.83;;;12.80;;
6436;SDS011;3251;53.550;9.918;2022-08-19T12:39:29;18.37;;;14.20;;
6436;SDS011;3251;53.550;9.918;2022-08-19T12:41:56;20.57;;;16.30;;
6436;SDS011;3251;53.550;9.918;2022-08-19T12:44:23;18.23;;;16.13;;
6436;SDS011;3251;53.550;9.918;2022-08-19T12:46:49;22.27;;;13.60;;
6436;SDS011;3251;53.550;9.918;2022-08-19T12:49:15;21.57;;;15.97;;
6436;SDS011;3251;53.550;9.918;2022-08-19T12:51:41;24.67;;;16.17;;
6436;SDS011;3251;53.550;9.918;2022-08-19T12:54:07;17.93;;;14.30;;
6436;SDS011;3251;53.550;9.918;2022-08-19T12:56:34;41.03;;;16.93;;
6436;SDS011;3251;53.550;9.918;2022-08-19T12:59:03;61.53;;;28.60;;
6436;SDS011;3251;53.550;9.918;2022-08-19T13:01:29;21.70;;;14.50;;
6436;SDS011;3251;53.550;9.918;2022-08-19T13:03:58;20.13;;;16.53;;
6436;SDS011;3251;53.550;9.918;2022-08-19T13:06:25;14.37;;;12.97;;
6436;SDS011;3251;53.550;9.918;2022-08-19T13:08:51;16.57;;;14.23;;
6436;SDS011;3251;53.550;9.918;2022-08-19T13:11:19;98.67;;;64.87;;
6436;SDS011;3251;53.550;9.918;2022-08-19T13:13:47;63.40;;;45.93;;
6436;SDS011;3251;53.550;9.918;2022-08-19T13:16:13;23.23;;;20.17;;
6436;SDS011;3251;53.550;9.918;2022-08-19T13:18:40;16.00;;;14.30;;
6436;SDS011;3251;53.550;9.918;2022-08-19T13:21:08;21.13;;;18.70;;
6436;SDS011;3251;53.550;9.918;2022-08-19T13:23:36;22.23;;;16.07;;
6436;SDS011;3251;53.550;9.918;2022-08-19T13:26:03;23.80;;;15.67;;
6436;SDS011;3251;53.550;9.918;2022-08-19T13:28:30;18.17;;;14.90;;
6436;SDS011;3251;53.550;9.918;2022-08-19T13:31:17;19.53;;;17.43;;
6436;SDS011;3251;53.550;9.918;2022-08-19T13:34:02;17.23;;;15.40;;
6436;SDS011;3251;53.550;9.918;2022-08-19T13:36:28;16.27;;;14.67;;
6436;SDS011;3251;53.550;9.918;2022-08-19T13:38:54;18.83;;;15.30;;
6436;SDS011;3251;53.550;9.918;2022-08-19T13:41:21;18.00;;;15.00;;
6436;SDS011;3251;53.550;9.918;2022-08-19T13:43:48;18.33;;;13.70;;
6436;SDS011;3251;53.550;9.918;2022-08-19T13:46:14;16.93;;;15.13;;
6436;SDS011;3251;53.550;9.918;2022-08-19T13:48:40;19.97;;;13.57;;
6436;SDS011;3251;53.550;9.918;2022-08-19T13:51:07;18.37;;;15.77;;
6436;SDS011;3251;53.550;9.918;2022-08-19T13:53:37;20.87;;;17.83;;
6436;SDS011;3251;53.550;9.918;2022-08-19T13:56:07;17.87;;;15.10;;
6436;SDS011;3251;53.550;9.918;2022-08-19T13:58:33;17.30;;;15.60;;
6436;SDS011;3251;53.550;9.918;2022-08-19T14:00:59;19.83;;;14.13;;
6436;SDS011;3251;53.550;9.918;2022-08-19T14:03:26;18.57;;;14.90;;
6436;SDS011;3251;53.550;9.918;2022-08-19T14:05:52;20.43;;;16.60;;
6436;SDS011;3251;53.550;9.918;2022-08-19T14:08:18;20.50;;;16.70;;
6436;SDS011;3251;53.550;9.918;2022-08-19T14:10:45;19.50;;;16.10;;
6436;SDS011;3251;53.550;9.918;2022-08-19T14:13:13;18.33;;;16.40;;
6436;SDS011;3251;53.550;9.918;2022-08-19T14:15:42;23.57;;;19.20;;
6436;SDS011;3251;53.550;9.918;2022-08-19T14:18:08;17.33;;;15.53;;
6436;SDS011;3251;53.550;9.918;2022-08-19T14:20:34;26.63;;;16.00;;
6436;SDS011;3251;53.550;9.918;2022-08-19T14:23:01;16.37;;;14.77;;
6436;SDS011;3251;53.550;9.918;2022-08-19T14:25:28;16.10;;;14.60;;
6436;SDS011;3251;53.550;9.918;2022-08-19T14:27:55;16.53;;;13.63;;
6436;SDS011;3251;53.550;9.918;2022-08-19T14:30:25;16.60;;;14.90;;
6436;SDS011;3251;53.550;9.918;2022-08-19T14:32:52;25.80;;;17.77;;
6436;SDS011;3251;53.550;9.918;2022-08-19T14:35:19;18.93;;;15.70;;
6436;SDS011;3251;53.550;9.918;2022-08-19T14:37:49;26.23;;;14.73;;
6436;SDS011;3251;53.550;9.918;2022-08-19T14:40:18;16.17;;;14.50;;
6436;SDS011;3251;53.550;9.918;2022-08-19T14:42:47;20.93;;;18.80;;
6436;SDS011;3251;53.550;9.918;2022-08-19T14:45:13;46.70;;;33.90;;
6436;SDS011;3251;53.550;9.918;2022-08-19T14:47:39;20.93;;;18.60;;
6436;SDS011;3251;53.550;9.918;2022-08-19T14:50:06;20.57;;;18.03;;
6436;SDS011;3251;53.550;9.918;2022-08-19T14:52:32;21.73;;;19.13;;
6436;SDS011;3251;53.550;9.918;2022-08-19T14:54:58;22.80;;;17.00;;
6436;SDS011;3251;53.550;9.918;2022-08-19T14:57:25;20.93;;;18.60;;
6436;SDS011;3251;53.550;9.918;2022-08-19T14:59:51;21.33;;;18.27;;
6436;SDS011;3251;53.550;9.918;2022-08-19T15:02:17;21.67;;;16.70;;
6436;SDS011;3251;53.550;9.918;2022-08-19T15:04:45;16.63;;;14.43;;
6436;SDS011;3251;53.550;9.918;2022-08-19T15:07:11;22.13;;;17.87;;